sensor_id;sensor_type;location;lat;lon;timestamp;P1;durP1;ratioP1;P2;durP2;ratioP2
10092;SDS011;5085;48.092;11.484;2022-11-18T00:01:08;0.20;;;0.20;;
10092;SDS011;5085;48.092;11.484;2022-11-18T00:03:36;0.90;;;0.30;;
10092;SDS011;5085;48.092;11.484;2022-11-18T00:06:02;0.50;;;0.40;;
10092;SDS011;5085;48.092;11.484;2022-11-18T00:08:29;1.30;;;0.10;;
10092;SDS011;5085;48.092;11.484;2022-11-18T00:10:56;0.17;;;0.13;;
10092;SDS011;5085;48.092;11.484;2022-11-18T00:13:22;0.30;;;0.17;;
10092;SDS011;5085;48.092;11.484;2022-11-18T00:16:08;0.77;;;0.20;;
10092;SDS011;5085;48.092;11.484;2022-11-18T00:18:36;1.30;;;0.20;;
10092;SDS011;5085;48.092;11.484;2022-11-18T00:21:04;0.73;;;0.20;;
10092;SDS011;5085;48.092;11.484;2022-11-18T00:23:32;0.60;;;0.22;;
10092;SDS011;5085;48.092;11.484;2022-11-18T00:26:03;1.17;;;0.30;;
10092;SDS011;5085;48.092;11.484;2022-11-18T00:28:33;7.63;;;0.63;;
10092;SDS011;5085;48.092;11.484;2022-11-18T00:31:04;0.20;;;0.10;;
10092;SDS011;5085;48.092;11.484;2022-11-18T00:33:31;0.73;;;0.28;;
10092;SDS011;5085;48.092;11.484;2022-11-18T00:35:58;0.68;;;0.30;;
10092;SDS011;5085;48.092;11.484;2022-11-18T00:38:28;4.13;;;0.30;;
10092;SDS011;5085;48.092;11.484;2022-11-18T00:41:01;2.25;;;0.35;;
10092;SDS011;5085;48.092;11.484;2022-11-18T00:43:29;0.25;;;0.20;;
10092;SDS011;5085;48.092;11.484;2022-11-18T00:45:56;0.80;;;0.28;;
10092;SDS011;5085;48.092;11.484;2022-11-18T00:48:25;0.57;;;0.30;;
10092;SDS011;5085;48.092;11.484;2022-11-18T00:50:52;0.63;;;0.13;;
10092;SDS011;5085;48.092;11.484;2022-11-18T00:53:28;0.43;;;0.22;;
10092;SDS011;5085;48.092;11.484;2022-11-18T00:55:54;0.52;;;0.20;;
10092;SDS011;5085;48.092;11.484;2022-11-18T00:58:20;1.75;;;0.20;;
10092;SDS011;5085;48.092;11.484;2022-11-18T01:00:56;0.08;;;0.05;;
10092;SDS011;5085;48.092;11.484;2022-11-18T01:03:29;0.50;;;0.30;;
10092;SDS011;5085;48.092;11.484;2022-11-18T01:05:56;0.63;;;0.28;;
10092;SDS011;5085;48.092;11.484;2022-11-18T01:08:28;0.75;;;0.15;;
10092;SDS011;5085;48.092;11.484;2022-11-18T01:10:54;0.30;;;0.10;;
10092;SDS011;5085;48.092;11.484;2022-11-18T01:13:40;0.13;;;0.10;;
10092;SDS011;5085;48.092;11.484;2022-11-18T01:16:23;0.30;;;0.20;;
10092;SDS011;5085;48.092;11.484;2022-11-18T01:18:53;1.23;;;0.30;;
10092;SDS011;5085;48.092;11.484;2022-11-18T01:21:19;0.77;;;0.40;;
10092;SDS011;5085;48.092;11.484;2022-11-18T01:23:54;0.22;;;0.13;;
10092;SDS011;5085;48.092;11.484;2022-11-18T01:26:20;0.90;;;0.30;;
10092;SDS011;5085;48.092;11.484;2022-11-18T01:28:55;0.50;;;0.30;;
10092;SDS011;5085;48.092;11.484;2022-11-18T01:31:22;2.03;;;0.40;;
10092;SDS011;5085;48.092;11.484;2022-11-18T01:33:57;0.90;;;0.25;;
10092;SDS011;5085;48.092;11.484;2022-11-18T01:36:33;0.70;;;0.32;;
10092;SDS011;5085;48.092;11.484;2022-11-18T01:39:14;0.60;;;0.28;;
10092;SDS011;5085;48.092;11.484;2022-11-18T01:41:48;0.45;;;0.20;;
10092;SDS011;5085;48.092;11.484;2022-11-18T01:47:48;0.40;;;0.15;;
10092;SDS011;5085;48.092;11.484;2022-11-18T01:50:20;0.30;;;0.20;;
10092;SDS011;5085;48.092;11.484;2022-11-18T01:52:55;0.85;;;0.22;;
10092;SDS011;5085;48.092;11.484;2022-11-18T01:55:25;1.35;;;0.30;;
10092;SDS011;5085;48.092;11.484;2022-11-18T01:58:00;4.30;;;0.45;;
10092;SDS011;5085;48.092;11.484;2022-11-18T02:00:51;2.03;;;0.25;;
10092;SDS011;5085;48.092;11.484;2022-11-18T02:03:20;0.20;;;0.20;;
10092;SDS011;5085;48.092;11.484;2022-11-18T02:05:56;0.60;;;0.20;;
10092;SDS011;5085;48.092;11.484;2022-11-18T02:08:25;1.17;;;0.32;;
10092;SDS011;5085;48.092;11.484;2022-11-18T02:10:55;0.60;;;0.20;;
10092;SDS011;5085;48.092;11.484;2022-11-18T02:13:21;0.20;;;0.20;;
10092;SDS011;5085;48.092;11.484;2022-11-18T02:21:42;0.57;;;0.20;;
10092;SDS011;5085;48.092;11.484;2022-11-18T02:24:26;1.25;;;0.30;;
10092;SDS011;5085;48.092;11.484;2022-11-18T02:27:14;2.28;;;0.20;;
10092;SDS011;5085;48.092;11.484;2022-11-18T02:30:11;2.60;;;0.30;;
10092;SDS011;5085;48.092;11.484;2022-11-18T02:32:55;0.35;;;0.20;;
10092;SDS011;5085;48.092;11.484;2022-11-18T02:35:48;0.10;;;0.10;;
10092;SDS011;5085;48.092;11.484;2022-11-18T02:38:43;0.80;;;0.20;;
10092;SDS011;5085;48.092;11.484;2022-11-18T02:41:17;0.63;;;0.28;;
10092;SDS011;5085;48.092;11.484;2022-11-18T02:44:15;0.17;;;0.10;;
10092;SDS011;5085;48.092;11.484;2022-11-18T02:46:48;0.28;;;0.10;;
10092;SDS011;5085;48.092;11.484;2022-11-18T02:50:07;0.32;;;0.20;;
10092;SDS011;5085;48.092;11.484;2022-11-18T02:52:20;3.30;;;0.32;;
10092;SDS011;5085;48.092;11.484;2022-11-18T02:54:51;1.40;;;0.30;;
10092;SDS011;5085;48.092;11.484;2022-11-18T02:57:20;1.77;;;0.10;;
10092;SDS011;5085;48.092;11.484;2022-11-18T02:59:52;0.10;;;0.10;;
10092;SDS011;5085;48.092;11.484;2022-11-18T03:02:25;0.38;;;0.20;;
10092;SDS011;5085;48.092;11.484;2022-11-18T03:04:54;0.43;;;0.20;;
10092;SDS011;5085;48.092;11.484;2022-11-18T03:07:43;0.22;;;0.10;;
10092;SDS011;5085;48.092;11.484;2022-11-18T03:18:58;0.20;;;0.10;;
10092;SDS011;5085;48.092;11.484;2022-11-18T03:24:29;1.30;;;0.25;;
10092;SDS011;5085;48.092;11.484;2022-11-18T03:27:05;1.38;;;0.50;;
10092;SDS011;5085;48.092;11.484;2022-11-18T03:29:40;0.88;;;0.15;;
10092;SDS011;5085;48.092;11.484;2022-11-18T03:32:13;0.08;;;0.08;;
10092;SDS011;5085;48.092;11.484;2022-11-18T03:34:52;0.05;;;0.00;;
10092;SDS011;5085;48.092;11.484;2022-11-18T03:37:23;0.65;;;0.30;;
10092;SDS011;5085;48.092;11.484;2022-11-18T03:39:56;0.73;;;0.30;;
10092;SDS011;5085;48.092;11.484;2022-11-18T03:42:34;0.00;;;0.00;;
10092;SDS011;5085;48.092;11.484;2022-11-18T03:45:22;0.63;;;0.17;;
10092;SDS011;5085;48.092;11.484;2022-11-18T03:48:00;2.33;;;0.20;;
10092;SDS011;5085;48.092;11.484;2022-11-18T03:50:36;0.60;;;0.13;;
10092;SDS011;5085;48.092;11.484;2022-11-18T03:53:09;1.42;;;0.17;;
10092;SDS011;5085;48.092;11.484;2022-11-18T03:56:09;0.20;;;0.10;;
10092;SDS011;5085;48.092;11.484;2022-11-18T03:58:52;0.10;;;0.10;;
10092;SDS011;5085;48.092;11.484;2022-11-18T04:01:56;3.97;;;0.20;;
10092;SDS011;5085;48.092;11.484;2022-11-18T04:04:28;0.10;;;0.10;;
10092;SDS011;5085;48.092;11.484;2022-11-18T04:09:41;0.32;;;0.00;;
10092;SDS011;5085;48.092;11.484;2022-11-18T04:12:13;0.28;;;0.20;;
10092;SDS011;5085;48.092;11.484;2022-11-18T04:14:45;1.50;;;0.20;;
10092;SDS011;5085;48.092;11.484;2022-11-18T04:17:25;2.92;;;0.10;;
10092;SDS011;5085;48.092;11.484;2022-11-18T04:20:03;0.82;;;0.10;;
10092;SDS011;5085;48.092;11.484;2022-11-18T04:22:29;0.40;;;0.10;;
10092;SDS011;5085;48.092;11.484;2022-11-18T04:24:58;1.17;;;0.10;;
10092;SDS011;5085;48.092;11.484;2022-11-18T04:27:24;1.08;;;0.20;;
10092;SDS011;5085;48.092;11.484;2022-11-18T04:29:50;5.25;;;0.30;;
10092;SDS011;5085;48.092;11.484;2022-11-18T04:32:16;0.10;;;0.10;;
10092;SDS011;5085;48.092;11.484;2022-11-18T04:34:42;0.22;;;0.08;;
10092;SDS011;5085;48.092;11.484;2022-11-18T04:37:08;3.10;;;0.20;;
10092;SDS011;5085;48.092;11.484;2022-11-18T04:39:34;0.00;;;0.00;;
10092;SDS011;5085;48.092;11.484;2022-11-18T04:42:00;0.13;;;0.10;;
10092;SDS011;5085;48.092;11.484;2022-11-18T04:44:28;1.20;;;0.10;;
10092;SDS011;5085;48.092;11.484;2022-11-18T04:46:55;0.43;;;0.10;;
10092;SDS011;5085;48.092;11.484;2022-11-18T04:49:23;0.10;;;0.10;;
10092;SDS011;5085;48.092;11.484;2022-11-18T04:51:50;0.00;;;0.00;;
10092;SDS011;5085;48.092;11.484;2022-11-18T04:54:16;2.35;;;0.10;;
10092;SDS011;5085;48.092;11.484;2022-11-18T04:56:43;0.13;;;0.13;;
10092;SDS011;5085;48.092;11.484;2022-11-18T04:59:09;0.10;;;0.10;;
10092;SDS011;5085;48.092;11.484;2022-11-18T05:01:37;0.10;;;0.00;;
10092;SDS011;5085;48.092;11.484;2022-11-18T05:04:04;0.00;;;0.00;;
10092;SDS011;5085;48.092;11.484;2022-11-18T05:06:30;0.63;;;0.10;;
10092;SDS011;5085;48.092;11.484;2022-11-18T05:08:57;0.03;;;0.03;;
10092;SDS011;5085;48.092;11.484;2022-11-18T05:11:25;0.00;;;0.00;;
10092;SDS011;5085;48.092;11.484;2022-11-18T05:14:12;0.28;;;0.10;;
10092;SDS011;5085;48.092;11.484;2022-11-18T05:16:38;0.52;;;0.10;;
10092;SDS011;5085;48.092;11.484;2022-11-18T05:19:05;0.08;;;0.08;;
10092;SDS011;5085;48.092;11.484;2022-11-18T05:21:31;0.45;;;0.13;;
10092;SDS011;5085;48.092;11.484;2022-11-18T05:23:58;0.10;;;0.10;;
10092;SDS011;5085;48.092;11.484;2022-11-18T05:26:25;0.10;;;0.10;;
10092;SDS011;5085;48.092;11.484;2022-11-18T05:28:51;0.28;;;0.10;;
10092;SDS011;5085;48.092;11.484;2022-11-18T05:31:18;0.10;;;0.10;;
10092;SDS011;5085;48.092;11.484;2022-11-18T05:33:44;0.50;;;0.17;;
10092;SDS011;5085;48.092;11.484;2022-11-18T05:36:15;0.25;;;0.03;;
10092;SDS011;5085;48.092;11.484;2022-11-18T05:38:42;0.15;;;0.10;;
10092;SDS011;5085;48.092;11.484;2022-11-18T05:41:09;0.03;;;0.03;;
10092;SDS011;5085;48.092;11.484;2022-11-18T05:43:36;0.00;;;0.00;;
10092;SDS011;5085;48.092;11.484;2022-11-18T05:46:02;0.13;;;0.10;;
10092;SDS011;5085;48.092;11.484;2022-11-18T05:48:28;0.30;;;0.20;;
10092;SDS011;5085;48.092;11.484;2022-11-18T05:50:54;0.28;;;0.10;;
10092;SDS011;5085;48.092;11.484;2022-11-18T05:53:21;0.17;;;0.10;;
10092;SDS011;5085;48.092;11.484;2022-11-18T05:58:43;0.30;;;0.10;;
10092;SDS011;5085;48.092;11.484;2022-11-18T06:01:09;0.10;;;0.00;;
10092;SDS011;5085;48.092;11.484;2022-11-18T06:03:38;0.00;;;0.00;;
10092;SDS011;5085;48.092;11.484;2022-11-18T06:06:06;0.17;;;0.10;;
10092;SDS011;5085;48.092;11.484;2022-11-18T06:08:34;0.10;;;0.10;;
10092;SDS011;5085;48.092;11.484;2022-11-18T06:11:05;1.08;;;0.20;;
10092;SDS011;5085;48.092;11.484;2022-11-18T06:13:38;0.47;;;0.10;;
10092;SDS011;5085;48.092;11.484;2022-11-18T06:16:18;0.05;;;0.03;;
10092;SDS011;5085;48.092;11.484;2022-11-18T06:18:51;0.80;;;0.10;;
10092;SDS011;5085;48.092;11.484;2022-11-18T06:21:17;0.03;;;0.03;;
10092;SDS011;5085;48.092;11.484;2022-11-18T06:23:43;0.55;;;0.20;;
10092;SDS011;5085;48.092;11.484;2022-11-18T06:26:09;0.10;;;0.10;;
10092;SDS011;5085;48.092;11.484;2022-11-18T06:28:38;0.10;;;0.10;;
10092;SDS011;5085;48.092;11.484;2022-11-18T06:31:05;0.63;;;0.10;;
10092;SDS011;5085;48.092;11.484;2022-11-18T06:33:31;0.20;;;0.10;;
10092;SDS011;5085;48.092;11.484;2022-11-18T06:35:57;0.10;;;0.00;;
10092;SDS011;5085;48.092;11.484;2022-11-18T06:38:23;0.10;;;0.10;;
10092;SDS011;5085;48.092;11.484;2022-11-18T06:40:50;0.47;;;0.10;;
10092;SDS011;5085;48.092;11.484;2022-11-18T06:43:16;0.10;;;0.10;;
10092;SDS011;5085;48.092;11.484;2022-11-18T06:46:02;0.20;;;0.10;;
10092;SDS011;5085;48.092;11.484;2022-11-18T06:48:47;0.40;;;0.13;;
10092;SDS011;5085;48.092;11.484;2022-11-18T06:51:13;0.17;;;0.13;;
10092;SDS011;5085;48.092;11.484;2022-11-18T06:53:39;0.03;;;0.03;;
10092;SDS011;5085;48.092;11.484;2022-11-18T06:56:06;0.55;;;0.20;;
10092;SDS011;5085;48.092;11.484;2022-11-18T06:58:34;0.22;;;0.10;;
10092;SDS011;5085;48.092;11.484;2022-11-18T07:01:16;0.20;;;0.10;;
10092;SDS011;5085;48.092;11.484;2022-11-18T07:03:46;0.63;;;0.20;;
10092;SDS011;5085;48.092;11.484;2022-11-18T07:06:14;0.52;;;0.20;;
10092;SDS011;5085;48.092;11.484;2022-11-18T07:08:42;0.10;;;0.10;;
10092;SDS011;5085;48.092;11.484;2022-11-18T07:11:12;0.50;;;0.20;;
10092;SDS011;5085;48.092;11.484;2022-11-18T07:13:40;0.52;;;0.20;;
10092;SDS011;5085;48.092;11.484;2022-11-18T07:16:13;0.50;;;0.10;;
10092;SDS011;5085;48.092;11.484;2022-11-18T07:18:41;0.13;;;0.10;;
10092;SDS011;5085;48.092;11.484;2022-11-18T07:21:12;0.32;;;0.15;;
10092;SDS011;5085;48.092;11.484;2022-11-18T07:23:40;0.20;;;0.10;;
10092;SDS011;5085;48.092;11.484;2022-11-18T07:26:06;0.43;;;0.20;;
10092;SDS011;5085;48.092;11.484;2022-11-18T07:28:33;0.40;;;0.20;;
10092;SDS011;5085;48.092;11.484;2022-11-18T07:31:04;0.20;;;0.20;;
10092;SDS011;5085;48.092;11.484;2022-11-18T07:33:30;0.52;;;0.30;;
10092;SDS011;5085;48.092;11.484;2022-11-18T07:36:00;0.60;;;0.38;;
10092;SDS011;5085;48.092;11.484;2022-11-18T07:38:30;0.57;;;0.22;;
10092;SDS011;5085;48.092;11.484;2022-11-18T07:41:07;0.38;;;0.20;;
10092;SDS011;5085;48.092;11.484;2022-11-18T07:43:35;0.30;;;0.30;;
10092;SDS011;5085;48.092;11.484;2022-11-18T07:48:59;0.20;;;0.20;;
10092;SDS011;5085;48.092;11.484;2022-11-18T07:51:27;0.88;;;0.30;;
10092;SDS011;5085;48.092;11.484;2022-11-18T07:54:06;0.43;;;0.40;;
10092;SDS011;5085;48.092;11.484;2022-11-18T07:56:34;0.20;;;0.10;;
10092;SDS011;5085;48.092;11.484;2022-11-18T07:59:03;0.50;;;0.30;;
10092;SDS011;5085;48.092;11.484;2022-11-18T08:01:36;0.40;;;0.30;;
10092;SDS011;5085;48.092;11.484;2022-11-18T08:04:06;1.05;;;0.22;;
10092;SDS011;5085;48.092;11.484;2022-11-18T08:06:34;0.95;;;0.10;;
10092;SDS011;5085;48.092;11.484;2022-11-18T08:09:00;0.30;;;0.20;;
10092;SDS011;5085;48.092;11.484;2022-11-18T08:11:27;0.77;;;0.20;;
10092;SDS011;5085;48.092;11.484;2022-11-18T08:13:53;0.77;;;0.10;;
10092;SDS011;5085;48.092;11.484;2022-11-18T08:16:20;0.45;;;0.13;;
10092;SDS011;5085;48.092;11.484;2022-11-18T08:18:48;0.28;;;0.13;;
10092;SDS011;5085;48.092;11.484;2022-11-18T08:21:15;0.90;;;0.20;;
10092;SDS011;5085;48.092;11.484;2022-11-18T08:23:43;0.30;;;0.20;;
10092;SDS011;5085;48.092;11.484;2022-11-18T08:26:14;0.95;;;0.20;;
10092;SDS011;5085;48.092;11.484;2022-11-18T08:31:28;0.63;;;0.20;;
10092;SDS011;5085;48.092;11.484;2022-11-18T08:33:55;0.30;;;0.20;;
10092;SDS011;5085;48.092;11.484;2022-11-18T08:36:24;1.83;;;0.52;;
10092;SDS011;5085;48.092;11.484;2022-11-18T08:38:53;0.17;;;0.10;;
10092;SDS011;5085;48.092;11.484;2022-11-18T08:41:20;0.20;;;0.13;;
10092;SDS011;5085;48.092;11.484;2022-11-18T08:43:53;0.10;;;0.10;;
10092;SDS011;5085;48.092;11.484;2022-11-18T08:46:19;1.10;;;0.43;;
10092;SDS011;5085;48.092;11.484;2022-11-18T08:48:46;0.20;;;0.20;;
10092;SDS011;5085;48.092;11.484;2022-11-18T08:51:12;1.73;;;0.35;;
10092;SDS011;5085;48.092;11.484;2022-11-18T08:53:39;2.33;;;0.28;;
10092;SDS011;5085;48.092;11.484;2022-11-18T08:56:05;0.20;;;0.13;;
10092;SDS011;5085;48.092;11.484;2022-11-18T08:58:32;0.63;;;0.20;;
10092;SDS011;5085;48.092;11.484;2022-11-18T09:01:03;0.60;;;0.20;;
10092;SDS011;5085;48.092;11.484;2022-11-18T09:03:31;2.08;;;0.32;;
10092;SDS011;5085;48.092;11.484;2022-11-18T09:06:08;0.90;;;0.40;;
10092;SDS011;5085;48.092;11.484;2022-11-18T09:08:38;1.95;;;0.50;;
10092;SDS011;5085;48.092;11.484;2022-11-18T09:11:06;1.02;;;0.30;;
10092;SDS011;5085;48.092;11.484;2022-11-18T09:13:33;1.15;;;0.50;;
10092;SDS011;5085;48.092;11.484;2022-11-18T09:16:00;0.88;;;0.30;;
10092;SDS011;5085;48.092;11.484;2022-11-18T09:18:26;0.75;;;0.30;;
10092;SDS011;5085;48.092;11.484;2022-11-18T09:20:56;0.65;;;0.40;;
10092;SDS011;5085;48.092;11.484;2022-11-18T09:23:24;0.65;;;0.40;;
10092;SDS011;5085;48.092;11.484;2022-11-18T09:26:00;0.57;;;0.25;;
10092;SDS011;5085;48.092;11.484;2022-11-18T09:28:28;0.40;;;0.20;;
10092;SDS011;5085;48.092;11.484;2022-11-18T09:30:55;0.90;;;0.15;;
10092;SDS011;5085;48.092;11.484;2022-11-18T09:33:21;2.13;;;0.30;;
10092;SDS011;5085;48.092;11.484;2022-11-18T09:35:47;1.45;;;0.85;;
10092;SDS011;5085;48.092;11.484;2022-11-18T09:38:13;0.95;;;0.32;;
10092;SDS011;5085;48.092;11.484;2022-11-18T09:43:11;0.75;;;0.32;;
10092;SDS011;5085;48.092;11.484;2022-11-18T09:46:20;2.85;;;0.50;;
10092;SDS011;5085;48.092;11.484;2022-11-18T09:48:56;2.22;;;0.40;;
10092;SDS011;5085;48.092;11.484;2022-11-18T09:51:41;0.32;;;0.20;;
10092;SDS011;5085;48.092;11.484;2022-11-18T09:54:14;0.82;;;0.47;;
10092;SDS011;5085;48.092;11.484;2022-11-18T09:56:46;0.32;;;0.20;;
10092;SDS011;5085;48.092;11.484;2022-11-18T09:59:14;0.52;;;0.30;;
10092;SDS011;5085;48.092;11.484;2022-11-18T10:01:43;0.70;;;0.40;;
10092;SDS011;5085;48.092;11.484;2022-11-18T10:04:16;2.80;;;0.60;;
10092;SDS011;5085;48.092;11.484;2022-11-18T10:06:45;0.50;;;0.30;;
10092;SDS011;5085;48.092;11.484;2022-11-18T10:12:06;3.33;;;0.70;;
10092;SDS011;5085;48.092;11.484;2022-11-18T10:14:56;1.15;;;0.40;;
10092;SDS011;5085;48.092;11.484;2022-11-18T10:25:35;1.27;;;0.40;;
10092;SDS011;5085;48.092;11.484;2022-11-18T10:28:12;1.30;;;0.52;;
10092;SDS011;5085;48.092;11.484;2022-11-18T10:30:47;2.80;;;0.50;;
10092;SDS011;5085;48.092;11.484;2022-11-18T10:33:24;1.02;;;0.40;;
10092;SDS011;5085;48.092;11.484;2022-11-18T10:38:43;0.90;;;0.45;;
10092;SDS011;5085;48.092;11.484;2022-11-18T10:41:11;1.25;;;0.55;;
10092;SDS011;5085;48.092;11.484;2022-11-18T10:46:15;1.13;;;0.52;;
10092;SDS011;5085;48.092;11.484;2022-11-18T10:48:47;0.90;;;0.40;;
10092;SDS011;5085;48.092;11.484;2022-11-18T10:51:22;0.50;;;0.30;;
10092;SDS011;5085;48.092;11.484;2022-11-18T10:53:49;1.88;;;0.60;;
10092;SDS011;5085;48.092;11.484;2022-11-18T10:56:15;0.98;;;0.40;;
10092;SDS011;5085;48.092;11.484;2022-11-18T10:58:43;1.08;;;0.63;;
10092;SDS011;5085;48.092;11.484;2022-11-18T11:01:22;5.30;;;0.68;;
10092;SDS011;5085;48.092;11.484;2022-11-18T11:04:14;1.65;;;0.38;;
10092;SDS011;5085;48.092;11.484;2022-11-18T11:06:43;1.02;;;0.40;;
10092;SDS011;5085;48.092;11.484;2022-11-18T11:09:21;0.22;;;0.10;;
10092;SDS011;5085;48.092;11.484;2022-11-18T11:17:14;0.17;;;0.13;;
10092;SDS011;5085;48.092;11.484;2022-11-18T11:22:33;0.55;;;0.20;;
10092;SDS011;5085;48.092;11.484;2022-11-18T11:24:59;0.60;;;0.22;;
10092;SDS011;5085;48.092;11.484;2022-11-18T11:27:32;0.30;;;0.15;;
10092;SDS011;5085;48.092;11.484;2022-11-18T11:30:17;0.40;;;0.20;;
10092;SDS011;5085;48.092;11.484;2022-11-18T11:35:29;0.85;;;0.30;;
10092;SDS011;5085;48.092;11.484;2022-11-18T11:38:14;0.98;;;0.40;;
10092;SDS011;5085;48.092;11.484;2022-11-18T11:49:09;0.95;;;0.40;;
10092;SDS011;5085;48.092;11.484;2022-11-18T11:51:49;0.75;;;0.35;;
10092;SDS011;5085;48.092;11.484;2022-11-18T11:54:32;0.95;;;0.30;;
10092;SDS011;5085;48.092;11.484;2022-11-18T11:57:39;1.20;;;0.40;;
10092;SDS011;5085;48.092;11.484;2022-11-18T12:00:13;0.90;;;0.40;;
10092;SDS011;5085;48.092;11.484;2022-11-18T12:10:32;0.60;;;0.30;;
10092;SDS011;5085;48.092;11.484;2022-11-18T12:13:13;0.50;;;0.22;;
10092;SDS011;5085;48.092;11.484;2022-11-18T12:26:58;0.65;;;0.40;;
10092;SDS011;5085;48.092;11.484;2022-11-18T12:29:35;3.90;;;0.50;;
10092;SDS011;5085;48.092;11.484;2022-11-18T12:32:34;0.98;;;0.50;;
10092;SDS011;5085;48.092;11.484;2022-11-18T12:42:59;0.60;;;0.15;;
10092;SDS011;5085;48.092;11.484;2022-11-18T12:50:50;0.45;;;0.22;;
10092;SDS011;5085;48.092;11.484;2022-11-18T12:53:34;0.28;;;0.20;;
10092;SDS011;5085;48.092;11.484;2022-11-18T12:58:59;0.55;;;0.20;;
10092;SDS011;5085;48.092;11.484;2022-11-18T13:04:07;0.60;;;0.15;;
10092;SDS011;5085;48.092;11.484;2022-11-18T13:06:34;2.63;;;0.30;;
10092;SDS011;5085;48.092;11.484;2022-11-18T13:09:04;0.30;;;0.15;;
10092;SDS011;5085;48.092;11.484;2022-11-18T13:11:48;0.43;;;0.20;;
10092;SDS011;5085;48.092;11.484;2022-11-18T13:14:19;0.57;;;0.25;;
10092;SDS011;5085;48.092;11.484;2022-11-18T13:22:59;0.63;;;0.40;;
10092;SDS011;5085;48.092;11.484;2022-11-18T13:25:53;0.90;;;0.40;;
10092;SDS011;5085;48.092;11.484;2022-11-18T13:31:46;0.68;;;0.38;;
10092;SDS011;5085;48.092;11.484;2022-11-18T13:34:50;0.60;;;0.30;;
10092;SDS011;5085;48.092;11.484;2022-11-18T13:39:54;1.73;;;0.47;;
10092;SDS011;5085;48.092;11.484;2022-11-18T13:42:28;0.90;;;0.40;;
10092;SDS011;5085;48.092;11.484;2022-11-18T13:44:56;1.25;;;0.43;;
10092;SDS011;5085;48.092;11.484;2022-11-18T13:50:16;2.28;;;0.40;;
10092;SDS011;5085;48.092;11.484;2022-11-18T13:56:00;1.20;;;0.50;;
10092;SDS011;5085;48.092;11.484;2022-11-18T14:00:59;1.40;;;0.52;;
10092;SDS011;5085;48.092;11.484;2022-11-18T14:06:29;1.75;;;0.63;;
10092;SDS011;5085;48.092;11.484;2022-11-18T14:11:40;2.45;;;0.60;;
10092;SDS011;5085;48.092;11.484;2022-11-18T14:14:08;1.58;;;0.70;;
10092;SDS011;5085;48.092;11.484;2022-11-18T14:16:36;1.40;;;0.52;;
10092;SDS011;5085;48.092;11.484;2022-11-18T14:19:03;2.95;;;0.70;;
10092;SDS011;5085;48.092;11.484;2022-11-18T14:21:31;2.72;;;1.00;;
10092;SDS011;5085;48.092;11.484;2022-11-18T14:23:59;1.42;;;0.75;;
10092;SDS011;5085;48.092;11.484;2022-11-18T14:26:30;1.60;;;0.80;;
10092;SDS011;5085;48.092;11.484;2022-11-18T14:29:02;1.33;;;0.70;;
10092;SDS011;5085;48.092;11.484;2022-11-18T14:31:41;1.83;;;0.70;;
10092;SDS011;5085;48.092;11.484;2022-11-18T14:34:20;2.53;;;0.95;;
10092;SDS011;5085;48.092;11.484;2022-11-18T14:36:50;1.85;;;0.90;;
10092;SDS011;5085;48.092;11.484;2022-11-18T14:39:24;2.47;;;1.00;;
10092;SDS011;5085;48.092;11.484;2022-11-18T14:41:52;1.75;;;0.95;;
10092;SDS011;5085;48.092;11.484;2022-11-18T14:44:19;2.08;;;1.00;;
10092;SDS011;5085;48.092;11.484;2022-11-18T14:46:47;2.20;;;1.00;;
10092;SDS011;5085;48.092;11.484;2022-11-18T14:49:18;1.85;;;0.88;;
10092;SDS011;5085;48.092;11.484;2022-11-18T14:54:15;1.33;;;0.80;;
10092;SDS011;5085;48.092;11.484;2022-11-18T14:56:43;3.40;;;1.15;;
10092;SDS011;5085;48.092;11.484;2022-11-18T14:59:11;0.50;;;0.30;;
10092;SDS011;5085;48.092;11.484;2022-11-18T15:01:39;1.55;;;0.50;;
10092;SDS011;5085;48.092;11.484;2022-11-18T15:04:06;1.35;;;0.30;;
10092;SDS011;5085;48.092;11.484;2022-11-18T15:06:32;0.85;;;0.30;;
10092;SDS011;5085;48.092;11.484;2022-11-18T15:08:58;0.63;;;0.30;;
10092;SDS011;5085;48.092;11.484;2022-11-18T15:11:24;0.20;;;0.20;;
10092;SDS011;5085;48.092;11.484;2022-11-18T15:13:50;0.85;;;0.35;;
10092;SDS011;5085;48.092;11.484;2022-11-18T15:16:17;3.22;;;1.10;;
10092;SDS011;5085;48.092;11.484;2022-11-18T15:19:04;1.88;;;0.88;;
10092;SDS011;5085;48.092;11.484;2022-11-18T15:21:30;1.92;;;1.00;;
10092;SDS011;5085;48.092;11.484;2022-11-18T15:23:57;0.60;;;0.30;;
10092;SDS011;5085;48.092;11.484;2022-11-18T15:26:28;1.38;;;0.70;;
10092;SDS011;5085;48.092;11.484;2022-11-18T15:28:58;2.95;;;1.00;;
10092;SDS011;5085;48.092;11.484;2022-11-18T15:31:24;2.17;;;0.68;;
10092;SDS011;5085;48.092;11.484;2022-11-18T15:33:50;0.95;;;0.40;;
10092;SDS011;5085;48.092;11.484;2022-11-18T15:36:18;2.35;;;0.77;;
10092;SDS011;5085;48.092;11.484;2022-11-18T15:38:46;0.98;;;0.52;;
10092;SDS011;5085;48.092;11.484;2022-11-18T15:41:16;1.80;;;0.47;;
10092;SDS011;5085;48.092;11.484;2022-11-18T15:43:45;1.33;;;0.68;;
10092;SDS011;5085;48.092;11.484;2022-11-18T15:46:13;1.00;;;0.50;;
10092;SDS011;5085;48.092;11.484;2022-11-18T15:48:40;2.20;;;0.82;;
10092;SDS011;5085;48.092;11.484;2022-11-18T15:51:06;2.08;;;0.60;;
10092;SDS011;5085;48.092;11.484;2022-11-18T15:53:32;1.95;;;0.82;;
10092;SDS011;5085;48.092;11.484;2022-11-18T15:58:40;1.38;;;0.65;;
10092;SDS011;5085;48.092;11.484;2022-11-18T16:01:06;1.23;;;0.43;;
10092;SDS011;5085;48.092;11.484;2022-11-18T16:03:33;0.68;;;0.43;;
10092;SDS011;5085;48.092;11.484;2022-11-18T16:05:59;1.38;;;0.68;;
10092;SDS011;5085;48.092;11.484;2022-11-18T16:08:25;1.10;;;0.60;;
10092;SDS011;5085;48.092;11.484;2022-11-18T16:10:54;1.27;;;0.60;;
10092;SDS011;5085;48.092;11.484;2022-11-18T16:13:44;3.40;;;1.15;;
10092;SDS011;5085;48.092;11.484;2022-11-18T16:16:19;1.20;;;0.60;;
10092;SDS011;5085;48.092;11.484;2022-11-18T16:18:46;1.40;;;0.55;;
10092;SDS011;5085;48.092;11.484;2022-11-18T16:21:13;1.20;;;0.50;;
10092;SDS011;5085;48.092;11.484;2022-11-18T16:23:39;2.65;;;0.60;;
10092;SDS011;5085;48.092;11.484;2022-11-18T16:26:05;0.80;;;0.50;;
10092;SDS011;5085;48.092;11.484;2022-11-18T16:28:31;2.65;;;0.70;;
10092;SDS011;5085;48.092;11.484;2022-11-18T16:30:57;3.20;;;0.77;;
10092;SDS011;5085;48.092;11.484;2022-11-18T16:33:41;0.98;;;0.40;;
10092;SDS011;5085;48.092;11.484;2022-11-18T16:36:07;1.55;;;0.73;;
10092;SDS011;5085;48.092;11.484;2022-11-18T16:38:33;2.00;;;0.90;;
10092;SDS011;5085;48.092;11.484;2022-11-18T16:40:59;1.83;;;0.90;;
10092;SDS011;5085;48.092;11.484;2022-11-18T16:43:25;2.20;;;0.77;;
10092;SDS011;5085;48.092;11.484;2022-11-18T16:45:51;0.80;;;0.40;;
10092;SDS011;5085;48.092;11.484;2022-11-18T16:48:19;1.83;;;0.77;;
10092;SDS011;5085;48.092;11.484;2022-11-18T16:50:50;1.35;;;0.73;;
10092;SDS011;5085;48.092;11.484;2022-11-18T16:53:31;1.80;;;0.90;;
10092;SDS011;5085;48.092;11.484;2022-11-18T16:56:01;2.05;;;0.85;;
10092;SDS011;5085;48.092;11.484;2022-11-18T16:58:28;1.95;;;0.65;;
10092;SDS011;5085;48.092;11.484;2022-11-18T17:00:54;1.30;;;0.60;;
10092;SDS011;5085;48.092;11.484;2022-11-18T17:03:20;1.05;;;0.50;;
10092;SDS011;5085;48.092;11.484;2022-11-18T17:05:47;1.58;;;0.80;;
10092;SDS011;5085;48.092;11.484;2022-11-18T17:08:13;2.95;;;0.90;;
10092;SDS011;5085;48.092;11.484;2022-11-18T17:10:39;1.75;;;0.68;;
10092;SDS011;5085;48.092;11.484;2022-11-18T17:13:05;1.15;;;0.60;;
10092;SDS011;5085;48.092;11.484;2022-11-18T17:15:33;1.58;;;0.73;;
10092;SDS011;5085;48.092;11.484;2022-11-18T17:18:00;1.55;;;0.88;;
10092;SDS011;5085;48.092;11.484;2022-11-18T17:20:26;1.42;;;0.70;;
10092;SDS011;5085;48.092;11.484;2022-11-18T17:22:52;1.20;;;0.70;;
10092;SDS011;5085;48.092;11.484;2022-11-18T17:25:18;1.40;;;0.80;;
10092;SDS011;5085;48.092;11.484;2022-11-18T17:27:46;1.80;;;0.95;;
10092;SDS011;5085;48.092;11.484;2022-11-18T17:30:15;1.67;;;0.77;;
10092;SDS011;5085;48.092;11.484;2022-11-18T17:32:42;1.02;;;0.73;;